Sunday, December 16, 2018, 3:10 PM GMT
Back to Local

CWJB, Ste Foy CS , Que.

Location: , , Canada Lat: 47.3
Local Time: 3:10 PM GMT (15:10 GMT) Lon: -71.267
Time Zone: GMT Elev: 298 ft

Show me the last for .
Show Decoded

2018-12-16 14:00 METAR CWJB 161400Z AUTO 00000KT M05/M05 RMK AO1 SOG 35 T10461053 =
2018-12-16 13:00 METAR CWJB 161300Z AUTO 01001KT M04/M05 RMK AO1 SOG 35 T10411047 =
2018-12-16 12:00 METAR CWJB 161200Z AUTO 33001KT M04/M05 RMK AO1 SOG 35 T10431049 =
2018-12-16 11:00 METAR CWJB 161100Z AUTO 17001KT M05/M05 RMK AO1 SOG 35 T10471054 =
2018-12-16 10:00 METAR CWJB 161000Z AUTO 36001KT M05/M05 RMK AO1 SOG 35 T10461053 =
2018-12-16 09:00 METAR CWJB 160900Z AUTO 00000KT M04/M05 RMK AO1 SOG 35 T10411052 =
2018-12-16 08:00 METAR CWJB 160800Z AUTO 22001KT M03/M05 RMK AO1 SOG 35 T10291048 =
2018-12-16 07:00 METAR CWJB 160700Z AUTO 21002KT M02/M04 RMK AO1 SOG 35 T10171043 =
2018-12-16 06:00 METAR CWJB 160600Z AUTO 20002KT M01/M04 RMK AO1 SOG 35 T10111042 =
2018-12-16 05:00 METAR CWJB 160500Z AUTO 22002KT M00/M04 RMK AO1 SOG 36 T10031036 =
2018-12-16 04:00 METAR CWJB 160400Z AUTO 33001KT 01/M04 RMK AO1 SOG 36 T00101037 =
2018-12-16 03:00 METAR CWJB 160300Z AUTO 21003KT 01/M03 RMK AO1 SOG 36 T00051027 =
2018-12-16 02:00 METAR CWJB 160200Z AUTO 21003KT 01/M03 RMK AO1 SOG 36 T00121030 =
2018-12-16 01:00 METAR CWJB 160100Z AUTO 34002KT 02/M02 RMK AO1 SOG 36 T00161021 =
2018-12-16 00:00 METAR CWJB 160000Z AUTO 21004KT 02/M01 RMK AO1 SOG 36 T00201013 =
2018-12-15 23:00 METAR CWJB 152300Z AUTO 22004KT 02/M01 RMK AO1 SOG 36 T00211010 =
2018-12-15 22:00 METAR CWJB 152200Z AUTO 21005KT 02/M01 RMK AO1 SOG 36 T00231010 =
2018-12-15 21:00 METAR CWJB 152100Z AUTO 22004KT 02/M01 RMK AO1 SOG 37 T00151008 =
2018-12-15 20:00 METAR CWJB 152000Z AUTO 22006KT 02/M00 RMK AO1 SOG 37 T00241004 =
2018-12-15 19:00 METAR CWJB 151900Z AUTO 22006KT 02/M00 RMK AO1 SOG 37 T00231003 =
2018-12-15 18:00 METAR CWJB 151800Z AUTO 22007KT 02/M00 RMK AO1 SOG 37 T00181002 50010 =
2018-12-15 17:00 METAR CWJB 151700Z AUTO 21005KT 02/M00 RMK AO1 SOG 37 PK WND 22017/1602
                 T00171001 50010 =
2018-12-15 16:00 METAR CWJB 151600Z AUTO 21011G17KT 01/00 RMK AO1 SOG 38 PK WND 22018/1533
                 T00050000 50010 =

Support USWX by starting your Amazon purchase here.